createdAt,value
2024-01-25T00:02:19.307Z,9.12
2024-01-25T00:04:48.148Z,9.10
2024-01-25T00:07:17.089Z,9.16
2024-01-25T00:09:45.981Z,9.18
2024-01-25T00:12:14.941Z,9.17
2024-01-25T00:14:44.002Z,9.19
2024-01-25T00:17:12.979Z,9.23
2024-01-25T00:19:43.268Z,9.17
2024-01-25T00:22:12.379Z,9.10
2024-01-25T00:24:41.675Z,9.10
2024-01-25T00:27:11.411Z,9.12
2024-01-25T00:29:40.219Z,9.16
2024-01-25T00:32:08.989Z,9.20
2024-01-25T00:34:38.544Z,9.21
2024-01-25T00:37:10.102Z,9.20
2024-01-25T00:39:39.604Z,9.24
2024-01-25T00:42:09.218Z,9.23
2024-01-25T00:44:38.541Z,9.25
2024-01-25T00:47:08.327Z,9.31
2024-01-25T00:49:37.998Z,9.29
2024-01-25T00:52:09.739Z,9.27
2024-01-25T00:54:39.305Z,9.33
2024-01-25T00:57:09.363Z,9.25
2024-01-25T00:59:38.815Z,9.30
2024-01-25T01:02:10.559Z,9.33
2024-01-25T01:04:47.327Z,9.27
2024-01-25T01:07:19.490Z,9.31
2024-01-25T01:09:48.414Z,9.36
2024-01-25T01:12:17.833Z,9.40
2024-01-25T01:14:46.706Z,9.42
2024-01-25T01:17:15.534Z,9.39
2024-01-25T01:19:44.682Z,9.33
2024-01-25T01:22:13.755Z,9.43
2024-01-25T01:24:44.137Z,9.38
2024-01-25T01:27:13.045Z,9.41
2024-01-25T01:29:42.267Z,9.35
2024-01-25T01:32:11.570Z,9.36
2024-01-25T01:34:40.694Z,9.38
2024-01-25T01:37:09.840Z,9.38
2024-01-25T01:39:38.799Z,9.34
2024-01-25T01:42:09.046Z,9.31
2024-01-25T01:44:37.758Z,9.38
2024-01-25T01:47:06.584Z,9.40
2024-01-25T01:49:35.552Z,9.37
2024-01-25T01:52:04.693Z,9.36
2024-01-25T01:54:33.581Z,9.44
2024-01-25T01:57:02.515Z,9.42
2024-01-25T01:59:32.942Z,9.34
2024-01-25T02:02:04.127Z,9.37
2024-01-25T02:04:33.184Z,9.34
2024-01-25T02:07:02.118Z,9.37
2024-01-25T02:09:30.925Z,9.34
2024-01-25T02:12:03.368Z,9.36
2024-01-25T02:14:34.000Z,9.33
2024-01-25T02:17:02.797Z,9.38
2024-01-25T02:19:31.648Z,9.36
2024-01-25T02:22:01.368Z,9.35
2024-01-25T02:24:33.061Z,9.28
2024-01-25T02:27:06.547Z,9.29
2024-01-25T02:29:35.611Z,9.29
2024-01-25T02:32:04.350Z,9.25
2024-01-25T02:34:33.163Z,9.29
2024-01-25T02:37:02.039Z,9.26
2024-01-25T02:39:32.233Z,9.24
2024-01-25T02:42:01.175Z,9.23
2024-01-25T02:44:30.035Z,9.31
2024-01-25T02:46:58.764Z,9.32
2024-01-25T02:49:27.677Z,9.37
2024-01-25T02:51:56.533Z,9.43
2024-01-25T02:54:25.307Z,9.31
2024-01-25T02:56:55.491Z,9.34
2024-01-25T02:59:24.208Z,9.25
2024-01-25T03:01:53.940Z,9.20
2024-01-25T03:04:23.004Z,9.25
2024-01-25T03:06:51.964Z,9.21
2024-01-25T03:09:22.289Z,9.20
2024-01-25T03:11:51.162Z,9.20
2024-01-25T03:14:21.319Z,9.14
2024-01-25T03:16:50.075Z,9.22
2024-01-25T03:19:20.696Z,9.28
2024-01-25T03:21:49.517Z,9.20
2024-01-25T03:24:18.329Z,9.18
2024-01-25T03:26:47.065Z,9.20
2024-01-25T03:29:15.621Z,9.13
2024-01-25T03:31:45.731Z,9.06
2024-01-25T03:34:15.285Z,9.03
2024-01-25T03:36:44.196Z,9.01
2024-01-25T03:39:13.166Z,9.03
2024-01-25T03:41:41.973Z,9.07
2024-01-25T03:44:10.888Z,9.07
2024-01-25T03:46:39.730Z,9.07
2024-01-25T03:49:09.928Z,9.10
2024-01-25T03:51:38.899Z,9.01
2024-01-25T03:54:07.754Z,9.02
2024-01-25T03:56:36.570Z,8.98
2024-01-25T03:59:05.324Z,9.00
2024-01-25T04:01:34.123Z,8.99
2024-01-25T04:04:03.440Z,9.00
2024-01-25T04:06:33.686Z,8.96
2024-01-25T04:09:02.549Z,9.02
2024-01-25T04:11:31.295Z,9.04
2024-01-25T04:14:00.314Z,9.03
2024-01-25T04:16:29.166Z,8.97
2024-01-25T04:18:57.996Z,8.96
2024-01-25T04:21:26.821Z,8.87
2024-01-25T04:23:57.651Z,8.83
2024-01-25T04:26:26.333Z,8.83
2024-01-25T04:28:55.050Z,8.80
2024-01-25T04:31:24.307Z,8.83
2024-01-25T04:33:53.333Z,8.85
2024-01-25T04:36:22.181Z,8.80
2024-01-25T04:38:50.850Z,8.84
2024-01-25T04:41:21.153Z,8.84
2024-01-25T04:43:49.859Z,8.88
2024-01-25T04:46:18.635Z,8.85
2024-01-25T04:48:48.026Z,8.86
2024-01-25T04:51:21.046Z,8.80
2024-01-25T04:53:49.901Z,8.79
2024-01-25T04:56:19.150Z,8.84
2024-01-25T04:58:49.297Z,8.76
2024-01-25T05:01:18.495Z,8.80
2024-01-25T05:03:47.403Z,8.79
2024-01-25T05:06:16.208Z,8.80
2024-01-25T05:08:45.229Z,8.80
2024-01-25T05:11:14.197Z,8.83
2024-01-25T05:13:43.101Z,8.81
2024-01-25T05:16:13.411Z,8.72
2024-01-25T05:18:42.460Z,8.78
2024-01-25T05:21:11.415Z,8.78
2024-01-25T05:23:40.361Z,8.73
2024-01-25T05:26:09.029Z,8.72
2024-01-25T05:28:37.675Z,8.74
2024-01-25T05:31:06.997Z,8.72
2024-01-25T05:33:37.388Z,8.69
2024-01-25T05:36:06.911Z,8.67
2024-01-25T05:38:35.646Z,8.64
2024-01-25T05:41:04.410Z,8.56
2024-01-25T05:43:33.257Z,8.56
2024-01-25T05:46:04.818Z,8.55
2024-01-25T05:48:34.352Z,8.49
2024-01-25T05:51:04.717Z,8.51
2024-01-25T05:53:33.440Z,8.40
2024-01-25T05:56:02.124Z,8.38
2024-01-25T05:58:30.951Z,8.31
2024-01-25T06:00:59.850Z,8.20
2024-01-25T06:03:29.156Z,8.24
2024-01-25T06:05:58.031Z,8.13
2024-01-25T06:08:28.222Z,8.17
2024-01-25T06:10:56.988Z,8.13
2024-01-25T06:13:25.944Z,8.10
2024-01-25T06:15:54.789Z,8.11
2024-01-25T06:18:24.785Z,8.07
2024-01-25T06:20:53.624Z,7.94
2024-01-25T06:23:22.357Z,7.88
2024-01-25T06:25:52.475Z,7.87
2024-01-25T06:28:21.585Z,7.77
2024-01-25T06:30:50.634Z,7.74
2024-01-25T06:33:19.828Z,7.71
2024-01-25T06:35:49.014Z,7.66
2024-01-25T06:38:17.753Z,7.73
2024-01-25T06:40:46.532Z,7.58
2024-01-25T06:43:16.688Z,7.60
2024-01-25T06:45:45.543Z,7.41
2024-01-25T06:48:14.883Z,7.25
2024-01-25T06:50:44.253Z,7.24
2024-01-25T06:53:13.497Z,7.25
2024-01-25T06:55:42.462Z,7.35
2024-01-25T06:58:11.312Z,7.22
2024-01-25T07:00:43.740Z,7.28
2024-01-25T07:03:13.227Z,7.26
2024-01-25T07:05:42.554Z,7.21
2024-01-25T07:08:14.411Z,7.21
2024-01-25T07:10:43.491Z,7.12
2024-01-25T07:13:12.404Z,7.06
2024-01-25T07:15:42.653Z,6.99
2024-01-25T07:18:11.816Z,6.95
2024-01-25T07:20:40.851Z,6.88
2024-01-25T07:23:09.728Z,6.77
2024-01-25T07:25:38.684Z,6.66
2024-01-25T07:28:08.060Z,6.65
2024-01-25T07:30:37.092Z,6.65
2024-01-25T07:33:07.488Z,6.66
2024-01-25T07:35:36.748Z,6.69
2024-01-25T07:38:06.747Z,6.60
2024-01-25T07:40:35.911Z,6.44
2024-01-25T07:43:05.490Z,6.38
2024-01-25T07:45:34.559Z,6.38
2024-01-25T07:48:09.212Z,6.37
2024-01-25T07:50:45.158Z,6.42
2024-01-25T07:53:15.650Z,6.62
2024-01-25T07:55:44.613Z,6.52
2024-01-25T07:58:13.528Z,6.55
2024-01-25T08:00:43.487Z,6.57
2024-01-25T08:03:12.521Z,6.55
2024-01-25T08:05:47.907Z,6.50
2024-01-25T08:08:21.353Z,6.55
2024-01-25T08:10:50.335Z,6.52
2024-01-25T08:13:19.634Z,6.52
2024-01-25T08:15:48.627Z,6.54
2024-01-25T08:18:17.680Z,6.54
2024-01-25T08:20:47.304Z,6.63
2024-01-25T08:23:16.649Z,6.74
2024-01-25T08:25:47.005Z,6.84
2024-01-25T08:28:16.012Z,6.80
2024-01-25T08:30:44.988Z,6.90
2024-01-25T08:33:14.358Z,6.93
2024-01-25T08:35:43.574Z,6.97
2024-01-25T08:38:12.627Z,7.04
2024-01-25T08:40:41.592Z,7.07
2024-01-25T08:43:11.971Z,7.11
2024-01-25T08:45:40.851Z,7.11
2024-01-25T08:48:10.791Z,7.17
2024-01-25T08:50:39.762Z,7.18
2024-01-25T08:53:08.540Z,7.24
2024-01-25T08:55:37.557Z,7.36
2024-01-25T08:58:06.595Z,7.36
2024-01-25T09:00:36.858Z,7.47
2024-01-25T09:03:05.935Z,7.53
2024-01-25T09:05:39.490Z,7.62
2024-01-25T09:08:08.756Z,7.65
2024-01-25T09:10:37.810Z,7.67
2024-01-25T09:13:06.771Z,7.70
2024-01-25T09:15:37.307Z,7.74
2024-01-25T09:18:06.501Z,7.84
2024-01-25T09:20:35.832Z,7.84
2024-01-25T09:23:05.297Z,7.90
2024-01-25T09:25:35.028Z,8.04
2024-01-25T09:28:05.555Z,8.16
2024-01-25T09:30:34.501Z,8.23
2024-01-25T09:33:05.415Z,8.25
2024-01-25T09:35:35.213Z,8.39
2024-01-25T09:38:04.441Z,8.39
2024-01-25T09:40:34.715Z,8.44
2024-01-25T09:43:03.998Z,8.53
2024-01-25T09:45:33.690Z,8.53
2024-01-25T09:48:05.572Z,8.62
2024-01-25T09:50:35.385Z,8.58
2024-01-25T09:53:06.297Z,8.61
2024-01-25T09:55:39.933Z,8.65
2024-01-25T09:58:10.017Z,8.73
2024-01-25T10:00:39.313Z,8.66
2024-01-25T10:03:12.098Z,8.75
2024-01-25T10:05:41.303Z,8.81
2024-01-25T10:08:15.885Z,8.84
2024-01-25T10:10:44.820Z,8.92
2024-01-25T10:13:15.009Z,8.95
2024-01-25T10:15:46.254Z,9.03
2024-01-25T10:18:25.300Z,8.92
2024-01-25T10:20:58.788Z,9.05
2024-01-25T10:23:28.551Z,9.05
2024-01-25T10:25:58.673Z,9.10
2024-01-25T10:28:30.044Z,9.15
2024-01-25T10:31:02.582Z,9.23
2024-01-25T10:33:33.847Z,9.20
2024-01-25T10:36:05.972Z,9.19
2024-01-25T10:38:36.966Z,9.20
2024-01-25T10:41:08.141Z,9.25
2024-01-25T10:43:37.552Z,9.35
2024-01-25T10:46:07.287Z,9.38
2024-01-25T10:48:37.632Z,9.18
2024-01-25T10:51:07.093Z,9.24
2024-01-25T10:53:37.128Z,9.20
2024-01-25T10:56:07.397Z,9.30
2024-01-25T10:58:38.581Z,9.35
2024-01-25T11:01:15.814Z,9.33
2024-01-25T11:03:48.737Z,9.39
2024-01-25T11:06:18.726Z,9.53
2024-01-25T11:08:47.664Z,9.63
2024-01-25T11:11:17.514Z,9.59
2024-01-25T11:13:46.783Z,9.65
2024-01-25T11:16:17.254Z,9.71
2024-01-25T11:18:55.373Z,9.89
2024-01-25T11:21:27.389Z,9.92
2024-01-25T11:24:05.477Z,9.88
2024-01-25T11:26:35.654Z,10.00
2024-01-25T11:29:04.472Z,10.15
2024-01-25T11:31:33.410Z,10.27
2024-01-25T11:34:04.077Z,10.25
2024-01-25T11:36:33.044Z,10.21
2024-01-25T11:39:02.018Z,10.18
2024-01-25T11:41:30.783Z,10.17
2024-01-25T11:43:59.458Z,10.28
2024-01-25T11:46:28.264Z,10.37
2024-01-25T11:48:57.205Z,10.54
2024-01-25T11:51:27.364Z,10.73
2024-01-25T11:53:56.228Z,10.81
2024-01-25T11:56:27.464Z,10.82
2024-01-25T11:58:57.765Z,10.73
2024-01-25T12:01:27.326Z,10.76
2024-01-25T12:03:57.052Z,10.79
2024-01-25T12:06:27.366Z,10.70
2024-01-25T12:08:56.213Z,10.71
2024-01-25T12:11:25.419Z,10.60
2024-01-25T12:13:54.653Z,10.56
2024-01-25T12:16:23.449Z,10.45
2024-01-25T12:18:52.371Z,10.45
2024-01-25T12:21:21.421Z,10.27
2024-01-25T12:23:51.518Z,10.36
2024-01-25T12:26:20.974Z,10.27
2024-01-25T12:28:50.969Z,10.30
2024-01-25T12:31:19.915Z,10.27
2024-01-25T12:33:48.889Z,10.26
2024-01-25T12:36:17.976Z,10.38
2024-01-25T12:38:46.794Z,10.38
2024-01-25T12:41:16.992Z,10.52
2024-01-25T12:43:45.940Z,10.66
2024-01-25T12:46:22.630Z,10.84
2024-01-25T12:48:57.540Z,11.00
2024-01-25T12:51:27.461Z,10.96
2024-01-25T12:53:56.431Z,10.81
2024-01-25T12:56:26.807Z,10.87
2024-01-25T12:58:55.669Z,10.86
2024-01-25T13:01:24.605Z,10.88
2024-01-25T13:03:53.747Z,10.98
2024-01-25T13:06:22.595Z,10.97
2024-01-25T13:08:51.576Z,10.99
2024-01-25T13:11:20.364Z,10.93
2024-01-25T13:13:52.136Z,10.94
2024-01-25T13:16:20.867Z,10.95
2024-01-25T13:18:49.662Z,10.88
2024-01-25T13:21:18.537Z,10.70
2024-01-25T13:23:47.352Z,10.79
2024-01-25T13:26:16.244Z,10.92
2024-01-25T13:28:44.978Z,10.94
2024-01-25T13:31:15.091Z,10.96
2024-01-25T13:33:47.221Z,10.91
2024-01-25T13:36:17.064Z,10.95
2024-01-25T13:38:46.015Z,11.12
2024-01-25T13:41:14.864Z,11.32
2024-01-25T13:43:43.683Z,11.28
2024-01-25T13:46:12.532Z,11.26
2024-01-25T13:48:42.920Z,11.19
2024-01-25T13:51:11.865Z,11.23
2024-01-25T13:53:40.887Z,11.10
2024-01-25T13:56:09.932Z,11.17
2024-01-25T13:58:38.935Z,11.18
2024-01-25T14:01:07.972Z,11.25
2024-01-25T14:03:37.818Z,11.18
2024-01-25T14:06:11.616Z,11.13
2024-01-25T14:08:40.861Z,11.14
2024-01-25T14:11:12.032Z,11.10
2024-01-25T14:13:41.314Z,11.02
2024-01-25T14:16:10.821Z,11.03
2024-01-25T14:18:41.972Z,10.89
2024-01-25T14:21:14.004Z,10.96
2024-01-25T14:23:43.930Z,11.00
2024-01-25T14:26:12.955Z,11.01
2024-01-25T14:28:41.814Z,11.07
2024-01-25T14:31:11.629Z,10.94
2024-01-25T14:33:44.186Z,10.98
2024-01-25T14:36:16.467Z,10.84
2024-01-25T14:38:45.496Z,10.83
2024-01-25T14:41:14.414Z,10.82
2024-01-25T14:43:43.261Z,10.79
2024-01-25T14:46:12.583Z,10.80
2024-01-25T14:48:41.401Z,10.76
2024-01-25T14:51:10.207Z,10.56
2024-01-25T14:53:40.289Z,10.56
2024-01-25T14:56:09.968Z,10.50
2024-01-25T14:58:38.776Z,10.52
2024-01-25T15:01:07.568Z,10.52
2024-01-25T15:03:36.437Z,10.54
2024-01-25T15:06:05.473Z,10.55
2024-01-25T15:08:34.283Z,10.49
2024-01-25T15:11:04.909Z,10.44
2024-01-25T15:13:33.983Z,10.34
2024-01-25T15:16:02.894Z,10.29
2024-01-25T15:18:31.957Z,10.22
2024-01-25T15:21:02.025Z,10.19
2024-01-25T15:23:31.002Z,10.18
2024-01-25T15:25:59.816Z,10.17
2024-01-25T15:28:29.891Z,10.25
2024-01-25T15:30:59.074Z,10.24
2024-01-25T15:33:28.100Z,10.23
2024-01-25T15:35:57.003Z,10.28
2024-01-25T15:38:26.373Z,10.16
2024-01-25T15:40:55.356Z,10.14
2024-01-25T15:43:24.241Z,10.09
2024-01-25T15:45:54.621Z,10.09
2024-01-25T15:48:23.643Z,10.10
2024-01-25T15:50:52.683Z,10.02
2024-01-25T15:53:21.644Z,10.02
2024-01-25T15:55:50.469Z,9.98
2024-01-25T15:58:19.374Z,9.95
2024-01-25T16:00:48.307Z,9.88
2024-01-25T16:03:20.504Z,9.87
2024-01-25T16:05:49.861Z,9.77
2024-01-25T16:08:18.876Z,9.78
2024-01-25T16:10:47.752Z,9.79
2024-01-25T16:13:16.850Z,9.76
2024-01-25T16:15:45.683Z,9.77
2024-01-25T16:18:14.602Z,9.79
2024-01-25T16:20:45.554Z,9.82
2024-01-25T16:23:15.522Z,9.88
2024-01-25T16:25:44.795Z,9.85
2024-01-25T16:28:13.893Z,9.94
2024-01-25T16:30:43.221Z,9.82
2024-01-25T16:33:12.392Z,9.77
2024-01-25T16:35:41.585Z,9.79
2024-01-25T16:38:12.204Z,9.85
2024-01-25T16:40:41.151Z,9.80
2024-01-25T16:43:10.055Z,9.83
2024-01-25T16:45:39.149Z,9.89
2024-01-25T16:48:09.062Z,9.80
2024-01-25T16:50:38.147Z,9.74
2024-01-25T16:53:07.297Z,9.71
2024-01-25T16:55:38.117Z,9.70
2024-01-25T16:58:07.050Z,9.71
2024-01-25T17:00:36.163Z,9.65
2024-01-25T17:03:05.899Z,9.70
2024-01-25T17:05:34.706Z,9.50
2024-01-25T17:08:06.210Z,9.52
2024-01-25T17:10:34.939Z,9.46
2024-01-25T17:13:05.948Z,9.49
2024-01-25T17:15:34.782Z,9.53
2024-01-25T17:18:03.866Z,9.57
2024-01-25T17:20:33.192Z,9.54
2024-01-25T17:23:02.463Z,9.57
2024-01-25T17:25:31.368Z,9.53
2024-01-25T17:28:00.479Z,9.44
2024-01-25T17:30:30.930Z,9.38
2024-01-25T17:32:59.766Z,9.33
2024-01-25T17:35:28.934Z,9.32
2024-01-25T17:37:57.783Z,9.20
2024-01-25T17:40:26.780Z,9.35
2024-01-25T17:42:55.599Z,9.37
2024-01-25T17:45:24.636Z,9.31
2024-01-25T17:47:56.102Z,9.27
2024-01-25T17:50:25.035Z,9.22
2024-01-25T17:52:54.202Z,9.17
2024-01-25T17:55:23.076Z,9.15
2024-01-25T17:57:52.283Z,9.12
2024-01-25T18:00:21.370Z,8.95
2024-01-25T18:02:50.216Z,8.85
2024-01-25T18:05:20.597Z,8.75
2024-01-25T18:07:49.800Z,8.74
2024-01-25T18:10:19.000Z,8.75
2024-01-25T18:12:48.053Z,8.68
2024-01-25T18:15:19.213Z,8.67
2024-01-25T18:17:48.204Z,8.63
2024-01-25T18:20:18.276Z,8.68
2024-01-25T18:22:48.789Z,8.67
2024-01-25T18:25:17.763Z,8.62
2024-01-25T18:27:47.125Z,8.53
2024-01-25T18:30:16.606Z,8.47
2024-01-25T18:32:45.805Z,8.53
2024-01-25T18:35:16.133Z,8.46
2024-01-25T18:37:45.303Z,8.56
2024-01-25T18:40:16.735Z,8.57
2024-01-25T18:42:46.772Z,8.56
2024-01-25T18:45:17.278Z,8.47
2024-01-25T18:47:46.628Z,8.48
2024-01-25T18:50:15.967Z,8.44
2024-01-25T18:52:45.220Z,8.50
2024-01-25T18:55:17.011Z,8.53
2024-01-25T18:57:47.145Z,8.59
2024-01-25T19:00:16.939Z,8.62
2024-01-25T19:02:46.689Z,8.61
2024-01-25T19:05:17.191Z,8.52
2024-01-25T19:07:50.445Z,8.52
2024-01-25T19:10:21.146Z,8.56
2024-01-25T19:12:50.340Z,8.57
2024-01-25T19:15:19.440Z,8.47
2024-01-25T19:17:48.986Z,8.42
2024-01-25T19:20:18.297Z,8.42
2024-01-25T19:22:48.833Z,8.39
2024-01-25T19:25:18.064Z,8.41
2024-01-25T19:27:48.798Z,8.39
2024-01-25T19:30:18.405Z,8.38
2024-01-25T19:32:48.018Z,8.38
2024-01-25T19:35:19.437Z,8.34
2024-01-25T19:37:48.932Z,8.41
2024-01-25T19:40:18.255Z,8.43
2024-01-25T19:42:49.589Z,8.37
2024-01-25T19:45:18.835Z,8.31
2024-01-25T19:47:48.035Z,8.23
2024-01-25T19:50:17.507Z,8.36
2024-01-25T19:52:46.778Z,8.41
2024-01-25T19:55:16.632Z,8.43
2024-01-25T19:57:46.223Z,8.43
2024-01-25T20:00:18.145Z,8.46
2024-01-25T20:02:47.719Z,8.43
2024-01-25T20:05:17.806Z,8.42
2024-01-25T20:07:47.410Z,8.30
2024-01-25T20:10:16.447Z,8.20
2024-01-25T20:12:45.411Z,8.29
2024-01-25T20:15:17.024Z,8.29
2024-01-25T20:17:48.746Z,8.26
2024-01-25T20:20:17.747Z,8.21
2024-01-25T20:22:47.382Z,8.20
2024-01-25T20:25:16.501Z,8.19
2024-01-25T20:27:45.881Z,8.17
2024-01-25T20:30:15.956Z,8.17
2024-01-25T20:32:45.079Z,8.21
2024-01-25T20:35:15.405Z,8.21
2024-01-25T20:37:44.388Z,8.22
2024-01-25T20:40:13.763Z,8.25
2024-01-25T20:42:43.198Z,8.16
2024-01-25T20:45:12.078Z,8.13
2024-01-25T20:47:40.916Z,8.19
2024-01-25T20:50:15.201Z,8.20
2024-01-25T20:52:47.749Z,8.31
2024-01-25T20:55:16.782Z,8.27
2024-01-25T20:57:45.776Z,8.26
2024-01-25T21:00:15.511Z,8.22
2024-01-25T21:02:44.950Z,8.23
2024-01-25T21:05:15.590Z,8.21
2024-01-25T21:07:45.123Z,8.22
2024-01-25T21:10:18.120Z,8.23
2024-01-25T21:12:47.625Z,8.20
2024-01-25T21:15:17.168Z,8.17
2024-01-25T21:17:46.048Z,8.17
2024-01-25T21:20:14.888Z,8.24
2024-01-25T21:22:43.984Z,8.23
2024-01-25T21:25:12.812Z,8.25
2024-01-25T21:27:43.278Z,8.20
2024-01-25T21:30:13.524Z,8.20
2024-01-25T21:32:42.975Z,8.21
2024-01-25T21:35:11.930Z,8.23
2024-01-25T21:37:40.998Z,8.21
2024-01-25T21:40:10.521Z,8.28
2024-01-25T21:42:39.456Z,8.23
2024-01-25T21:45:13.263Z,8.25
2024-01-25T21:47:43.504Z,8.33
2024-01-25T21:50:13.119Z,8.22
2024-01-25T21:52:42.602Z,8.19
2024-01-25T21:55:13.062Z,8.18
2024-01-25T21:57:47.605Z,8.18
2024-01-25T22:00:18.900Z,8.26
2024-01-25T22:02:48.807Z,8.27
2024-01-25T22:05:20.384Z,8.23
2024-01-25T22:07:49.548Z,8.24
2024-01-25T22:10:18.394Z,8.27
2024-01-25T22:12:47.310Z,8.32
2024-01-25T22:15:16.282Z,8.26
2024-01-25T22:17:46.590Z,8.27
2024-01-25T22:20:16.173Z,8.28
2024-01-25T22:22:45.057Z,8.21
2024-01-25T22:25:14.172Z,8.13
2024-01-25T22:27:43.252Z,8.17
2024-01-25T22:30:12.997Z,8.15
2024-01-25T22:32:41.980Z,8.17
2024-01-25T22:35:12.455Z,8.22
2024-01-25T22:37:41.363Z,8.26
2024-01-25T22:40:11.421Z,8.16
2024-01-25T22:42:40.223Z,8.13
2024-01-25T22:45:10.017Z,8.13
2024-01-25T22:47:38.873Z,8.12
2024-01-25T22:50:08.528Z,8.06
2024-01-25T22:52:38.704Z,8.07
2024-01-25T22:55:07.909Z,8.07
2024-01-25T22:57:37.079Z,8.04
2024-01-25T23:00:11.290Z,8.10
2024-01-25T23:02:40.384Z,8.08
2024-01-25T23:05:09.296Z,8.10
2024-01-25T23:07:39.434Z,8.14
2024-01-25T23:10:09.299Z,8.13
2024-01-25T23:12:38.168Z,8.09
2024-01-25T23:15:08.918Z,8.05
2024-01-25T23:17:38.113Z,8.08
2024-01-25T23:20:09.102Z,8.08
2024-01-25T23:22:39.665Z,8.11
2024-01-25T23:25:09.402Z,8.07
2024-01-25T23:27:38.666Z,8.02
2024-01-25T23:30:09.420Z,8.00
2024-01-25T23:32:38.754Z,8.19
2024-01-25T23:35:08.205Z,8.18
2024-01-25T23:37:36.949Z,8.11
2024-01-25T23:40:09.021Z,8.11
2024-01-25T23:42:38.721Z,8.09
2024-01-25T23:45:08.406Z,8.03
2024-01-25T23:47:38.507Z,7.98
2024-01-25T23:50:09.487Z,7.99
2024-01-25T23:52:38.584Z,8.00
2024-01-25T23:55:10.013Z,7.95
2024-01-25T23:57:38.708Z,7.88
